createdAt,value
2023-05-05T04:00:37.849Z,99809.28
2023-05-05T04:04:42.092Z,99807.63
2023-05-05T04:08:44.826Z,99804.75
2023-05-05T04:12:47.521Z,99805.06
2023-05-05T04:16:50.146Z,99804.84
2023-05-05T04:20:54.151Z,99818.19
2023-05-05T04:24:57.364Z,99808.09
2023-05-05T04:29:00.228Z,99824.09
2023-05-05T04:33:03.257Z,99816.19
2023-05-05T04:37:07.457Z,99812.53
2023-05-05T04:41:10.276Z,99821.66
2023-05-05T04:45:14.709Z,99809.84
2023-05-05T04:49:17.352Z,99812.56
2023-05-05T04:53:21.375Z,99820.38
2023-05-05T04:57:24.013Z,99833.00
2023-05-05T05:01:26.930Z,99823.13
2023-05-05T05:05:29.631Z,99801.88
2023-05-05T05:09:33.926Z,99808.56
2023-05-05T05:13:36.582Z,99811.53
2023-05-05T05:17:39.183Z,99828.22
2023-05-05T05:21:41.795Z,99817.63
2023-05-05T05:25:46.230Z,99821.50
2023-05-05T05:29:51.290Z,99831.44
2023-05-05T05:33:53.986Z,99819.63
2023-05-05T05:37:56.830Z,99821.75
2023-05-05T05:42:02.722Z,99824.91
2023-05-05T05:46:07.607Z,99829.75
2023-05-05T05:50:12.387Z,99836.25
2023-05-05T05:54:14.998Z,99842.91
2023-05-05T05:58:19.769Z,99852.94
2023-05-05T06:02:23.041Z,99849.16
2023-05-05T06:06:26.168Z,99852.31
2023-05-05T06:10:28.860Z,99843.97
2023-05-05T06:14:43.256Z,99842.53
2023-05-05T06:18:46.046Z,99843.38
2023-05-05T06:22:49.751Z,99840.88
2023-05-05T06:26:52.717Z,99850.88
2023-05-05T06:30:56.997Z,99849.44
2023-05-05T06:34:59.503Z,99851.28
2023-05-05T06:39:02.057Z,99856.47
2023-05-05T06:43:04.642Z,99858.25
2023-05-05T06:47:13.277Z,99867.69
2023-05-05T06:51:16.121Z,99854.47
2023-05-05T06:55:19.338Z,99847.97
2023-05-05T06:59:21.905Z,99834.75
2023-05-05T07:03:25.991Z,99832.84
2023-05-05T07:07:28.538Z,99845.09
2023-05-05T07:11:31.075Z,99828.66
2023-05-05T07:15:33.648Z,99813.63
2023-05-05T07:19:37.693Z,99817.84
2023-05-05T07:23:40.563Z,99819.94
2023-05-05T07:27:43.257Z,99823.31
2023-05-05T07:31:45.918Z,99827.00
2023-05-05T07:35:49.791Z,99822.50
2023-05-05T07:39:52.324Z,99826.94
2023-05-05T07:43:54.864Z,99821.19
2023-05-05T07:47:57.536Z,99809.91
2023-05-05T07:52:01.727Z,99805.84
2023-05-05T07:56:04.736Z,99799.72
2023-05-05T08:00:09.304Z,99810.97
2023-05-05T08:04:15.321Z,99809.69
2023-05-05T08:08:19.317Z,99805.69
2023-05-05T08:12:21.861Z,99801.06
2023-05-05T08:16:24.441Z,99804.59
2023-05-05T08:20:29.953Z,99803.00
2023-05-05T08:24:33.924Z,99797.84
2023-05-05T08:28:37.533Z,99807.69
2023-05-05T08:32:40.220Z,99811.25
2023-05-05T08:36:42.813Z,99819.84
2023-05-05T08:40:46.909Z,99823.56
2023-05-05T08:44:49.436Z,99817.88
2023-05-05T08:48:56.459Z,99825.81
2023-05-05T08:53:09.017Z,99822.66
2023-05-05T08:57:16.951Z,99817.44
2023-05-05T09:01:20.031Z,99818.56
2023-05-05T09:05:22.662Z,99823.34
2023-05-05T09:09:25.406Z,99819.78
2023-05-05T09:13:31.297Z,99823.22
2023-05-05T09:17:33.860Z,99820.25
2023-05-05T09:21:39.109Z,99825.09
2023-05-05T09:25:42.577Z,99820.44
2023-05-05T09:29:51.123Z,99820.84
2023-05-05T09:33:53.808Z,99822.81
2023-05-05T09:37:56.343Z,99833.28
2023-05-05T09:41:59.396Z,99833.31
2023-05-05T09:46:09.469Z,99833.88
2023-05-05T09:50:15.823Z,99837.97
2023-05-05T09:54:26.055Z,99844.44
2023-05-05T09:58:30.064Z,99854.13
2023-05-05T10:02:36.376Z,99850.84
2023-05-05T10:06:47.091Z,99862.09
2023-05-05T10:10:54.617Z,99876.81
2023-05-05T10:14:57.884Z,99871.69
2023-05-05T10:19:04.233Z,99869.69
2023-05-05T10:23:09.189Z,99872.81
2023-05-05T10:27:16.332Z,99860.78
2023-05-05T10:31:26.916Z,99843.53
2023-05-05T10:35:34.011Z,99837.66
2023-05-05T10:39:37.553Z,99832.41
2023-05-05T10:43:41.668Z,99832.38
2023-05-05T10:47:45.099Z,99842.69
2023-05-05T10:51:59.946Z,99839.59
2023-05-05T10:56:09.814Z,99840.88
2023-05-05T11:00:52.454Z,99836.28
2023-05-05T11:05:10.250Z,99837.41
2023-05-05T11:09:29.629Z,99830.81
2023-05-05T11:13:32.263Z,99832.53
2023-05-05T11:17:45.736Z,99829.59
2023-05-05T11:22:01.799Z,99831.31
2023-05-05T11:26:05.921Z,99828.03
2023-05-05T11:30:10.021Z,99831.84
2023-05-05T11:34:29.122Z,99821.69
2023-05-05T11:38:43.718Z,99834.56
2023-05-05T11:42:47.693Z,99831.38
2023-05-05T11:47:34.742Z,99828.81
2023-05-05T11:51:37.753Z,99826.56
2023-05-05T11:55:40.132Z,99816.75
2023-05-05T11:59:53.831Z,99807.00
2023-05-05T12:03:56.683Z,99791.44
2023-05-05T12:07:59.603Z,99786.78
2023-05-05T12:12:02.638Z,99780.94
2023-05-05T12:16:12.981Z,99781.31
2023-05-05T12:20:15.624Z,99784.19
2023-05-05T12:24:18.681Z,99784.34
2023-05-05T12:28:21.212Z,99789.03
2023-05-05T12:32:27.940Z,99784.66
2023-05-05T12:36:31.071Z,99773.16
2023-05-05T12:40:48.011Z,99778.09
2023-05-05T12:44:50.612Z,99774.34
2023-05-05T12:49:05.516Z,99767.75
2023-05-05T12:53:08.125Z,99760.44
2023-05-05T12:57:12.390Z,99765.31
2023-05-05T13:01:15.003Z,99751.97
2023-05-05T13:05:30.593Z,99751.75
2023-05-05T13:09:33.924Z,99746.41
2023-05-05T13:13:37.312Z,99748.41
2023-05-05T13:17:39.895Z,99741.19
2023-05-05T13:21:43.937Z,99737.56
2023-05-05T13:25:46.614Z,99737.19
2023-05-05T13:29:49.206Z,99733.94
2023-05-05T13:33:51.837Z,99729.69
2023-05-05T13:37:55.710Z,99724.94
2023-05-05T13:41:58.294Z,99717.38
2023-05-05T13:46:12.193Z,99710.25
2023-05-05T13:50:21.670Z,99701.88
2023-05-05T13:54:25.998Z,99688.84
2023-05-05T13:58:28.691Z,99692.50
2023-05-05T14:02:31.607Z,99696.44
2023-05-05T14:06:35.542Z,99693.03
2023-05-05T14:10:40.341Z,99681.81
2023-05-05T14:14:42.856Z,99681.47
2023-05-05T14:18:45.611Z,99676.88
2023-05-05T14:22:49.375Z,99667.94
2023-05-05T14:26:53.381Z,99662.91
2023-05-05T14:30:56.108Z,99666.56
2023-05-05T14:34:58.940Z,99678.78
2023-05-05T14:39:01.370Z,99677.47
2023-05-05T14:43:05.233Z,99678.94
2023-05-05T14:47:07.855Z,99685.31
2023-05-05T14:51:10.523Z,99686.69
2023-05-05T14:55:13.118Z,99681.22
2023-05-05T14:59:16.991Z,99692.00
2023-05-05T15:03:19.667Z,99676.44
2023-05-05T15:07:22.735Z,99675.31
2023-05-05T15:11:25.333Z,99671.47
2023-05-05T15:15:29.239Z,99667.72
2023-05-05T15:19:31.840Z,99658.38
2023-05-05T15:23:34.751Z,99659.63
2023-05-05T15:27:37.946Z,99654.03
2023-05-05T15:31:42.451Z,99647.78
2023-05-05T15:35:44.972Z,99660.22
2023-05-05T15:39:47.518Z,99658.72
2023-05-05T15:43:50.093Z,99652.63
2023-05-05T15:47:54.076Z,99656.28
2023-05-05T15:51:57.073Z,99650.94
2023-05-05T15:55:59.582Z,99657.66
2023-05-05T16:00:02.254Z,99665.94
2023-05-05T16:04:11.286Z,99667.34
2023-05-05T16:08:13.812Z,99666.09
2023-05-05T16:12:16.385Z,99675.00
2023-05-05T16:16:19.152Z,99686.59
2023-05-05T16:20:23.016Z,99705.88
2023-05-05T16:24:25.637Z,99728.16
2023-05-05T16:28:28.195Z,99750.84
2023-05-05T16:32:30.747Z,99756.22
2023-05-05T16:36:34.802Z,99766.22
2023-05-05T16:40:37.774Z,99771.59
2023-05-05T16:44:40.417Z,99767.13
2023-05-05T16:48:42.963Z,99765.84
2023-05-05T16:52:46.840Z,99764.16
2023-05-05T16:56:49.348Z,99758.97
2023-05-05T17:00:52.777Z,99762.53
2023-05-05T17:04:55.308Z,99762.06
2023-05-05T17:08:59.159Z,99776.72
2023-05-05T17:13:01.747Z,99767.50
2023-05-05T17:17:04.371Z,99770.94
2023-05-05T17:21:07.402Z,99778.56
2023-05-05T17:25:11.734Z,99753.94
2023-05-05T17:29:15.168Z,99755.25
2023-05-05T17:33:21.222Z,99759.06
2023-05-05T17:37:23.747Z,99749.91
2023-05-05T17:41:27.615Z,99737.44
2023-05-05T17:45:30.623Z,99710.91
2023-05-05T17:49:33.155Z,99708.72
2023-05-05T17:53:35.669Z,99716.69
2023-05-05T17:57:39.625Z,99722.19
2023-05-05T18:01:42.248Z,99719.22
2023-05-05T18:05:44.794Z,99724.81
2023-05-05T18:09:47.386Z,99727.28
2023-05-05T18:13:51.280Z,99736.50
2023-05-05T18:17:54.238Z,99733.09
2023-05-05T18:21:57.395Z,99736.63
2023-05-05T18:25:59.957Z,99731.19
2023-05-05T18:30:05.256Z,99725.03
2023-05-05T18:34:07.898Z,99733.44
2023-05-05T18:38:10.445Z,99735.56
2023-05-05T18:42:13.808Z,99742.78
2023-05-05T18:46:17.748Z,99742.66
2023-05-05T18:50:20.392Z,99742.41
2023-05-05T18:54:23.038Z,99759.94
2023-05-05T18:58:25.777Z,99760.06
2023-05-05T19:02:29.669Z,99769.09
2023-05-05T19:06:32.356Z,99776.09
2023-05-05T19:10:35.067Z,99769.81
2023-05-05T19:14:37.598Z,99762.59
2023-05-05T19:18:41.510Z,99770.28
2023-05-05T19:22:44.152Z,99761.44
2023-05-05T19:26:46.723Z,99754.84
2023-05-05T19:30:49.299Z,99764.44
2023-05-05T19:34:54.163Z,99754.03
2023-05-05T19:38:56.769Z,99754.06
2023-05-05T19:42:59.305Z,99755.25
2023-05-05T19:47:01.880Z,99753.00
2023-05-05T19:51:06.032Z,99749.50
2023-05-05T19:55:10.277Z,99745.28
2023-05-05T19:59:12.926Z,99749.31
2023-05-05T20:03:15.572Z,99749.50
2023-05-05T20:07:19.486Z,99751.91
2023-05-05T20:11:22.521Z,99750.25
2023-05-05T20:15:25.122Z,99753.81
2023-05-05T20:19:27.771Z,99753.81
2023-05-05T20:23:31.691Z,99744.47
2023-05-05T20:27:35.924Z,99744.94
2023-05-05T20:31:38.754Z,99757.81
2023-05-05T20:35:41.306Z,99751.47
2023-05-05T20:39:47.200Z,99752.50
2023-05-05T20:43:49.843Z,99760.72
2023-05-05T20:47:52.850Z,99782.03
2023-05-05T20:51:55.813Z,99788.94
2023-05-05T20:55:59.690Z,99795.97
2023-05-05T21:00:02.194Z,99795.03
